sensor_id;sensor_type;location;lat;lon;timestamp;temperature;humidity
52439;DHT22;38359;53.150;6.504;2022-11-20T00:01:22;0.30;99.90
52439;DHT22;38359;53.150;6.504;2022-11-20T00:11:49;0.40;99.90
52439;DHT22;38359;53.150;6.504;2022-11-20T00:22:15;0.30;99.90
52439;DHT22;38359;53.150;6.504;2022-11-20T00:32:41;0.30;99.90
52439;DHT22;38359;53.150;6.504;2022-11-20T00:43:07;0.40;99.90
52439;DHT22;38359;53.150;6.504;2022-11-20T00:53:33;0.30;99.90
52439;DHT22;38359;53.150;6.504;2022-11-20T01:04:00;0.50;99.90
52439;DHT22;38359;53.150;6.504;2022-11-20T01:14:26;0.40;99.90
52439;DHT22;38359;53.150;6.504;2022-11-20T01:24:51;0.50;99.90
52439;DHT22;38359;53.150;6.504;2022-11-20T01:35:17;0.30;99.90
52439;DHT22;38359;53.150;6.504;2022-11-20T01:46:03;0.50;99.90
52439;DHT22;38359;53.150;6.504;2022-11-20T01:56:44;0.40;99.90
52439;DHT22;38359;53.150;6.504;2022-11-20T02:07:11;0.50;99.90
52439;DHT22;38359;53.150;6.504;2022-11-20T02:17:38;0.40;99.90
52439;DHT22;38359;53.150;6.504;2022-11-20T02:28:05;0.40;99.90
52439;DHT22;38359;53.150;6.504;2022-11-20T02:38:31;0.40;99.90
52439;DHT22;38359;53.150;6.504;2022-11-20T02:48:57;0.50;99.90
52439;DHT22;38359;53.150;6.504;2022-11-20T02:59:23;0.50;99.90
52439;DHT22;38359;53.150;6.504;2022-11-20T03:09:48;0.70;99.90
52439;DHT22;38359;53.150;6.504;2022-11-20T03:20:14;0.70;99.90
52439;DHT22;38359;53.150;6.504;2022-11-20T03:30:40;0.70;99.90
52439;DHT22;38359;53.150;6.504;2022-11-20T03:41:11;0.70;99.90
52439;DHT22;38359;53.150;6.504;2022-11-20T03:51:38;0.70;99.90
52439;DHT22;38359;53.150;6.504;2022-11-20T04:02:03;0.70;99.90
52439;DHT22;38359;53.150;6.504;2022-11-20T04:12:32;0.70;99.90
52439;DHT22;38359;53.150;6.504;2022-11-20T04:22:58;0.80;99.90
52439;DHT22;38359;53.150;6.504;2022-11-20T04:33:24;1.10;99.90
52439;DHT22;38359;53.150;6.504;2022-11-20T04:43:52;1.20;99.90
52439;DHT22;38359;53.150;6.504;2022-11-20T04:54:24;1.10;99.90
52439;DHT22;38359;53.150;6.504;2022-11-20T05:04:50;1.20;99.90
52439;DHT22;38359;53.150;6.504;2022-11-20T05:15:15;1.10;99.90
52439;DHT22;38359;53.150;6.504;2022-11-20T05:25:41;1.10;99.90
52439;DHT22;38359;53.150;6.504;2022-11-20T05:36:08;0.90;99.90
52439;DHT22;38359;53.150;6.504;2022-11-20T05:46:34;0.90;99.90
52439;DHT22;38359;53.150;6.504;2022-11-20T05:57:00;0.80;99.90
52439;DHT22;38359;53.150;6.504;2022-11-20T06:07:26;1.00;99.90
52439;DHT22;38359;53.150;6.504;2022-11-20T06:17:53;0.90;99.90
52439;DHT22;38359;53.150;6.504;2022-11-20T06:28:19;0.90;99.90
52439;DHT22;38359;53.150;6.504;2022-11-20T06:38:45;0.90;99.90
52439;DHT22;38359;53.150;6.504;2022-11-20T06:49:11;1.00;99.90
52439;DHT22;38359;53.150;6.504;2022-11-20T06:59:36;1.20;99.90
52439;DHT22;38359;53.150;6.504;2022-11-20T07:10:02;1.10;99.90
52439;DHT22;38359;53.150;6.504;2022-11-20T07:20:29;1.30;99.90
52439;DHT22;38359;53.150;6.504;2022-11-20T07:30:55;1.10;99.90
52439;DHT22;38359;53.150;6.504;2022-11-20T07:41:21;1.30;99.90
52439;DHT22;38359;53.150;6.504;2022-11-20T07:51:47;1.20;99.90
52439;DHT22;38359;53.150;6.504;2022-11-20T08:02:15;1.30;99.90
52439;DHT22;38359;53.150;6.504;2022-11-20T08:12:49;1.40;99.90
52439;DHT22;38359;53.150;6.504;2022-11-20T08:23:34;1.20;99.90
52439;DHT22;38359;53.150;6.504;2022-11-20T08:34:00;1.30;99.90
52439;DHT22;38359;53.150;6.504;2022-11-20T08:44:26;1.10;99.90
52439;DHT22;38359;53.150;6.504;2022-11-20T08:54:51;1.20;99.90
52439;DHT22;38359;53.150;6.504;2022-11-20T09:05:17;1.10;99.90
52439;DHT22;38359;53.150;6.504;2022-11-20T09:15:43;1.30;99.90
52439;DHT22;38359;53.150;6.504;2022-11-20T09:26:13;1.20;99.90
52439;DHT22;38359;53.150;6.504;2022-11-20T09:36:39;1.40;99.90
52439;DHT22;38359;53.150;6.504;2022-11-20T09:47:11;1.60;99.90
52439;DHT22;38359;53.150;6.504;2022-11-20T09:57:48;2.00;99.90
52439;DHT22;38359;53.150;6.504;2022-11-20T10:31:01;2.10;99.90
52439;DHT22;38359;53.150;6.504;2022-11-20T10:41:34;2.30;99.90
52439;DHT22;38359;53.150;6.504;2022-11-20T11:03:27;2.40;99.90
52439;DHT22;38359;53.150;6.504;2022-11-20T11:14:24;2.30;99.90
52439;DHT22;38359;53.150;6.504;2022-11-20T11:24:53;2.40;99.90
52439;DHT22;38359;53.150;6.504;2022-11-20T11:35:20;2.40;99.90
52439;DHT22;38359;53.150;6.504;2022-11-20T11:45:54;2.80;99.90
52439;DHT22;38359;53.150;6.504;2022-11-20T11:56:22;2.90;99.90
52439;DHT22;38359;53.150;6.504;2022-11-20T12:06:53;3.00;99.90
52439;DHT22;38359;53.150;6.504;2022-11-20T12:17:26;3.40;99.90
52439;DHT22;38359;53.150;6.504;2022-11-20T12:28:35;3.90;99.90
52439;DHT22;38359;53.150;6.504;2022-11-20T12:39:24;4.50;99.90
52439;DHT22;38359;53.150;6.504;2022-11-20T12:50:14;4.80;99.90
52439;DHT22;38359;53.150;6.504;2022-11-20T13:01:00;4.20;99.90
52439;DHT22;38359;53.150;6.504;2022-11-20T13:12:24;4.70;99.90
52439;DHT22;38359;53.150;6.504;2022-11-20T13:22:55;4.80;99.90
52439;DHT22;38359;53.150;6.504;2022-11-20T13:33:29;4.70;99.90
52439;DHT22;38359;53.150;6.504;2022-11-20T13:44:10;4.70;99.90
52439;DHT22;38359;53.150;6.504;2022-11-20T14:05:38;4.70;99.90
52439;DHT22;38359;53.150;6.504;2022-11-20T14:16:05;4.50;99.90
52439;DHT22;38359;53.150;6.504;2022-11-20T14:26:31;4.30;99.90
52439;DHT22;38359;53.150;6.504;2022-11-20T14:37:00;4.10;99.90
52439;DHT22;38359;53.150;6.504;2022-11-20T14:47:30;4.00;99.90
52439;DHT22;38359;53.150;6.504;2022-11-20T14:57:58;3.90;99.90
52439;DHT22;38359;53.150;6.504;2022-11-20T15:08:29;3.70;99.90
52439;DHT22;38359;53.150;6.504;2022-11-20T15:18:55;3.40;99.90
52439;DHT22;38359;53.150;6.504;2022-11-20T15:29:22;3.20;99.90
52439;DHT22;38359;53.150;6.504;2022-11-20T15:39:48;3.00;99.90
52439;DHT22;38359;53.150;6.504;2022-11-20T15:50:17;3.00;99.90
52439;DHT22;38359;53.150;6.504;2022-11-20T16:00:43;3.00;99.90
52439;DHT22;38359;53.150;6.504;2022-11-20T16:11:14;2.90;99.90
52439;DHT22;38359;53.150;6.504;2022-11-20T16:21:42;2.90;99.90
52439;DHT22;38359;53.150;6.504;2022-11-20T16:32:08;2.90;99.90
52439;DHT22;38359;53.150;6.504;2022-11-20T16:42:36;2.80;99.90
52439;DHT22;38359;53.150;6.504;2022-11-20T16:53:02;2.70;99.90
52439;DHT22;38359;53.150;6.504;2022-11-20T17:03:28;2.70;99.90
52439;DHT22;38359;53.150;6.504;2022-11-20T17:13:54;2.70;99.90
52439;DHT22;38359;53.150;6.504;2022-11-20T17:24:21;2.60;99.90
52439;DHT22;38359;53.150;6.504;2022-11-20T17:34:47;2.50;99.90
52439;DHT22;38359;53.150;6.504;2022-11-20T17:45:12;2.60;99.90
52439;DHT22;38359;53.150;6.504;2022-11-20T17:55:38;2.50;99.90
52439;DHT22;38359;53.150;6.504;2022-11-20T18:06:24;2.60;99.90
52439;DHT22;38359;53.150;6.504;2022-11-20T18:16:56;2.50;99.90
52439;DHT22;38359;53.150;6.504;2022-11-20T18:27:23;2.60;99.90
52439;DHT22;38359;53.150;6.504;2022-11-20T18:37:49;2.50;99.90
52439;DHT22;38359;53.150;6.504;2022-11-20T18:48:14;2.50;99.90
52439;DHT22;38359;53.150;6.504;2022-11-20T18:58:40;2.70;99.90
52439;DHT22;38359;53.150;6.504;2022-11-20T19:09:08;2.50;99.90
52439;DHT22;38359;53.150;6.504;2022-11-20T19:19:36;2.40;99.90
52439;DHT22;38359;53.150;6.504;2022-11-20T19:30:02;2.40;99.90
52439;DHT22;38359;53.150;6.504;2022-11-20T19:40:28;2.50;99.90
52439;DHT22;38359;53.150;6.504;2022-11-20T19:50:53;2.50;99.90
52439;DHT22;38359;53.150;6.504;2022-11-20T20:01:22;2.60;99.90
52439;DHT22;38359;53.150;6.504;2022-11-20T20:11:49;2.50;99.90
52439;DHT22;38359;53.150;6.504;2022-11-20T20:22:15;2.60;99.90
52439;DHT22;38359;53.150;6.504;2022-11-20T20:32:40;2.60;99.90
52439;DHT22;38359;53.150;6.504;2022-11-20T20:43:06;2.50;99.90
52439;DHT22;38359;53.150;6.504;2022-11-20T20:53:32;2.50;99.90
52439;DHT22;38359;53.150;6.504;2022-11-20T21:03:58;2.50;99.90
52439;DHT22;38359;53.150;6.504;2022-11-20T21:14:24;2.50;99.90
52439;DHT22;38359;53.150;6.504;2022-11-20T21:24:49;3.30;99.90
52439;DHT22;38359;53.150;6.504;2022-11-20T21:35:15;2.40;99.90
52439;DHT22;38359;53.150;6.504;2022-11-20T21:45:41;2.40;99.90
52439;DHT22;38359;53.150;6.504;2022-11-20T21:56:09;2.30;99.90
52439;DHT22;38359;53.150;6.504;2022-11-20T22:06:35;2.40;99.90
52439;DHT22;38359;53.150;6.504;2022-11-20T22:17:01;2.30;99.90
52439;DHT22;38359;53.150;6.504;2022-11-20T22:27:27;2.50;99.90
52439;DHT22;38359;53.150;6.504;2022-11-20T22:37:52;2.40;99.90
52439;DHT22;38359;53.150;6.504;2022-11-20T22:48:18;2.40;99.90
52439;DHT22;38359;53.150;6.504;2022-11-20T22:58:47;2.40;99.90
52439;DHT22;38359;53.150;6.504;2022-11-20T23:09:14;2.30;99.90
52439;DHT22;38359;53.150;6.504;2022-11-20T23:19:40;2.40;99.90
52439;DHT22;38359;53.150;6.504;2022-11-20T23:30:06;2.40;99.90
52439;DHT22;38359;53.150;6.504;2022-11-20T23:40:33;2.40;99.90
52439;DHT22;38359;53.150;6.504;2022-11-20T23:51:00;2.20;99.90
